sensor_id;sensor_type;location;lat;lon;timestamp;P1;durP1;ratioP1;P2;durP2;ratioP2
33327;SDS011;19692;52.998;9.116;2023-07-08T00:00:43;7.87;;;5.70;;
33327;SDS011;19692;52.998;9.116;2023-07-08T00:03:10;6.87;;;5.10;;
33327;SDS011;19692;52.998;9.116;2023-07-08T00:05:36;5.67;;;5.07;;
33327;SDS011;19692;52.998;9.116;2023-07-08T00:08:02;6.50;;;5.23;;
33327;SDS011;19692;52.998;9.116;2023-07-08T00:10:28;9.87;;;5.67;;
33327;SDS011;19692;52.998;9.116;2023-07-08T00:12:56;6.10;;;5.37;;
33327;SDS011;19692;52.998;9.116;2023-07-08T00:15:27;6.73;;;5.40;;
33327;SDS011;19692;52.998;9.116;2023-07-08T00:17:54;7.00;;;5.63;;
33327;SDS011;19692;52.998;9.116;2023-07-08T00:20:26;10.97;;;5.77;;
33327;SDS011;19692;52.998;9.116;2023-07-08T00:23:00;6.30;;;5.70;;
33327;SDS011;19692;52.998;9.116;2023-07-08T00:25:27;7.03;;;5.87;;
33327;SDS011;19692;52.998;9.116;2023-07-08T00:27:53;6.70;;;5.23;;
33327;SDS011;19692;52.998;9.116;2023-07-08T00:30:26;6.60;;;5.13;;
33327;SDS011;19692;52.998;9.116;2023-07-08T00:32:55;7.03;;;5.50;;
33327;SDS011;19692;52.998;9.116;2023-07-08T00:35:36;8.23;;;5.37;;
33327;SDS011;19692;52.998;9.116;2023-07-08T00:38:12;5.40;;;4.90;;
33327;SDS011;19692;52.998;9.116;2023-07-08T00:40:50;6.13;;;5.27;;
33327;SDS011;19692;52.998;9.116;2023-07-08T00:43:19;6.80;;;5.17;;
33327;SDS011;19692;52.998;9.116;2023-07-08T00:45:51;7.80;;;5.53;;
33327;SDS011;19692;52.998;9.116;2023-07-08T00:48:30;8.57;;;5.90;;
33327;SDS011;19692;52.998;9.116;2023-07-08T00:51:00;7.43;;;6.13;;
33327;SDS011;19692;52.998;9.116;2023-07-08T00:53:31;7.53;;;5.40;;
33327;SDS011;19692;52.998;9.116;2023-07-08T00:56:00;9.57;;;5.70;;
33327;SDS011;19692;52.998;9.116;2023-07-08T00:58:42;5.87;;;5.27;;
33327;SDS011;19692;52.998;9.116;2023-07-08T01:01:14;5.57;;;5.07;;
33327;SDS011;19692;52.998;9.116;2023-07-08T01:03:57;7.37;;;5.60;;
33327;SDS011;19692;52.998;9.116;2023-07-08T01:06:30;6.43;;;5.40;;
33327;SDS011;19692;52.998;9.116;2023-07-08T01:09:05;5.50;;;5.00;;
33327;SDS011;19692;52.998;9.116;2023-07-08T01:11:32;8.30;;;5.47;;
33327;SDS011;19692;52.998;9.116;2023-07-08T01:14:00;7.43;;;5.10;;
33327;SDS011;19692;52.998;9.116;2023-07-08T01:16:28;5.17;;;4.70;;
33327;SDS011;19692;52.998;9.116;2023-07-08T01:18:58;5.73;;;4.80;;
33327;SDS011;19692;52.998;9.116;2023-07-08T01:21:38;6.57;;;5.30;;
33327;SDS011;19692;52.998;9.116;2023-07-08T01:24:19;6.93;;;5.30;;
33327;SDS011;19692;52.998;9.116;2023-07-08T01:26:44;7.33;;;5.30;;
33327;SDS011;19692;52.998;9.116;2023-07-08T01:29:11;7.30;;;5.53;;
33327;SDS011;19692;52.998;9.116;2023-07-08T01:31:38;6.27;;;5.03;;
33327;SDS011;19692;52.998;9.116;2023-07-08T01:34:04;7.47;;;5.17;;
33327;SDS011;19692;52.998;9.116;2023-07-08T01:36:34;10.00;;;4.87;;
33327;SDS011;19692;52.998;9.116;2023-07-08T01:39:09;6.23;;;5.07;;
33327;SDS011;19692;52.998;9.116;2023-07-08T01:41:42;9.00;;;5.17;;
33327;SDS011;19692;52.998;9.116;2023-07-08T01:44:26;8.57;;;5.23;;
33327;SDS011;19692;52.998;9.116;2023-07-08T01:47:29;7.57;;;5.17;;
33327;SDS011;19692;52.998;9.116;2023-07-08T01:49:48;7.57;;;5.20;;
33327;SDS011;19692;52.998;9.116;2023-07-08T01:52:14;10.43;;;5.87;;
33327;SDS011;19692;52.998;9.116;2023-07-08T01:54:43;6.23;;;4.90;;
33327;SDS011;19692;52.998;9.116;2023-07-08T01:57:08;6.13;;;5.03;;
33327;SDS011;19692;52.998;9.116;2023-07-08T01:59:34;5.70;;;4.83;;
33327;SDS011;19692;52.998;9.116;2023-07-08T02:02:00;5.73;;;4.47;;
33327;SDS011;19692;52.998;9.116;2023-07-08T02:04:26;5.30;;;4.80;;
33327;SDS011;19692;52.998;9.116;2023-07-08T02:06:55;5.50;;;4.67;;
33327;SDS011;19692;52.998;9.116;2023-07-08T02:09:23;5.60;;;5.03;;
33327;SDS011;19692;52.998;9.116;2023-07-08T02:11:50;4.93;;;4.33;;
33327;SDS011;19692;52.998;9.116;2023-07-08T02:14:19;9.93;;;4.70;;
33327;SDS011;19692;52.998;9.116;2023-07-08T02:16:45;8.23;;;5.20;;
33327;SDS011;19692;52.998;9.116;2023-07-08T02:19:11;7.83;;;5.50;;
33327;SDS011;19692;52.998;9.116;2023-07-08T02:21:37;7.30;;;5.07;;
33327;SDS011;19692;52.998;9.116;2023-07-08T02:24:04;5.57;;;4.87;;
33327;SDS011;19692;52.998;9.116;2023-07-08T02:26:30;7.33;;;5.23;;
33327;SDS011;19692;52.998;9.116;2023-07-08T02:28:59;7.10;;;5.17;;
33327;SDS011;19692;52.998;9.116;2023-07-08T02:31:26;6.70;;;4.90;;
33327;SDS011;19692;52.998;9.116;2023-07-08T02:33:52;6.43;;;4.73;;
33327;SDS011;19692;52.998;9.116;2023-07-08T02:36:18;5.60;;;4.70;;
33327;SDS011;19692;52.998;9.116;2023-07-08T02:38:44;5.87;;;4.77;;
33327;SDS011;19692;52.998;9.116;2023-07-08T02:41:10;6.17;;;4.70;;
33327;SDS011;19692;52.998;9.116;2023-07-08T02:43:36;6.40;;;4.80;;
33327;SDS011;19692;52.998;9.116;2023-07-08T02:46:03;6.90;;;5.50;;
33327;SDS011;19692;52.998;9.116;2023-07-08T02:48:29;6.00;;;5.40;;
33327;SDS011;19692;52.998;9.116;2023-07-08T02:50:58;5.77;;;5.17;;
33327;SDS011;19692;52.998;9.116;2023-07-08T02:53:25;7.80;;;5.50;;
33327;SDS011;19692;52.998;9.116;2023-07-08T02:55:51;7.30;;;5.53;;
33327;SDS011;19692;52.998;9.116;2023-07-08T02:58:17;6.20;;;5.60;;
33327;SDS011;19692;52.998;9.116;2023-07-08T03:00:42;7.33;;;5.93;;
33327;SDS011;19692;52.998;9.116;2023-07-08T03:03:08;10.03;;;5.10;;
33327;SDS011;19692;52.998;9.116;2023-07-08T03:05:34;6.53;;;5.33;;
33327;SDS011;19692;52.998;9.116;2023-07-08T03:08:01;6.30;;;5.70;;
33327;SDS011;19692;52.998;9.116;2023-07-08T03:10:27;5.60;;;5.10;;
33327;SDS011;19692;52.998;9.116;2023-07-08T03:12:53;5.80;;;5.23;;
33327;SDS011;19692;52.998;9.116;2023-07-08T03:15:19;6.07;;;5.30;;
33327;SDS011;19692;52.998;9.116;2023-07-08T03:17:44;6.30;;;5.70;;
33327;SDS011;19692;52.998;9.116;2023-07-08T03:20:10;6.27;;;5.50;;
33327;SDS011;19692;52.998;9.116;2023-07-08T03:22:37;6.63;;;5.50;;
33327;SDS011;19692;52.998;9.116;2023-07-08T03:25:02;6.17;;;5.57;;
33327;SDS011;19692;52.998;9.116;2023-07-08T03:27:28;7.67;;;5.47;;
33327;SDS011;19692;52.998;9.116;2023-07-08T03:29:54;6.30;;;5.70;;
33327;SDS011;19692;52.998;9.116;2023-07-08T03:32:20;7.33;;;6.00;;
33327;SDS011;19692;52.998;9.116;2023-07-08T03:34:46;7.60;;;5.83;;
33327;SDS011;19692;52.998;9.116;2023-07-08T03:37:11;5.87;;;5.27;;
33327;SDS011;19692;52.998;9.116;2023-07-08T03:39:37;6.23;;;5.40;;
33327;SDS011;19692;52.998;9.116;2023-07-08T03:42:03;7.07;;;5.23;;
33327;SDS011;19692;52.998;9.116;2023-07-08T03:44:29;7.60;;;5.70;;
33327;SDS011;19692;52.998;9.116;2023-07-08T03:46:55;7.00;;;5.80;;
33327;SDS011;19692;52.998;9.116;2023-07-08T03:49:22;8.37;;;5.80;;
33327;SDS011;19692;52.998;9.116;2023-07-08T03:51:49;7.87;;;5.73;;
33327;SDS011;19692;52.998;9.116;2023-07-08T03:54:21;7.47;;;5.73;;
33327;SDS011;19692;52.998;9.116;2023-07-08T03:56:49;6.17;;;5.57;;
33327;SDS011;19692;52.998;9.116;2023-07-08T03:59:15;6.07;;;5.47;;
33327;SDS011;19692;52.998;9.116;2023-07-08T04:01:42;6.20;;;5.60;;
33327;SDS011;19692;52.998;9.116;2023-07-08T04:04:08;9.53;;;6.10;;
33327;SDS011;19692;52.998;9.116;2023-07-08T04:06:38;8.43;;;5.57;;
33327;SDS011;19692;52.998;9.116;2023-07-08T04:09:03;6.97;;;5.90;;
33327;SDS011;19692;52.998;9.116;2023-07-08T04:11:29;7.30;;;5.40;;
33327;SDS011;19692;52.998;9.116;2023-07-08T04:13:55;6.20;;;5.60;;
33327;SDS011;19692;52.998;9.116;2023-07-08T04:16:22;6.83;;;5.30;;
33327;SDS011;19692;52.998;9.116;2023-07-08T04:18:55;7.57;;;5.60;;
33327;SDS011;19692;52.998;9.116;2023-07-08T04:21:22;9.00;;;5.27;;
33327;SDS011;19692;52.998;9.116;2023-07-08T04:23:52;7.47;;;5.47;;
33327;SDS011;19692;52.998;9.116;2023-07-08T04:26:18;6.13;;;5.20;;
33327;SDS011;19692;52.998;9.116;2023-07-08T04:28:44;5.80;;;5.20;;
33327;SDS011;19692;52.998;9.116;2023-07-08T04:31:10;5.57;;;4.93;;
33327;SDS011;19692;52.998;9.116;2023-07-08T04:33:36;6.93;;;5.83;;
33327;SDS011;19692;52.998;9.116;2023-07-08T04:36:02;8.63;;;5.20;;
33327;SDS011;19692;52.998;9.116;2023-07-08T04:38:29;5.83;;;4.90;;
33327;SDS011;19692;52.998;9.116;2023-07-08T04:40:54;9.17;;;5.30;;
33327;SDS011;19692;52.998;9.116;2023-07-08T04:43:22;6.83;;;5.20;;
33327;SDS011;19692;52.998;9.116;2023-07-08T04:45:54;8.07;;;5.13;;
33327;SDS011;19692;52.998;9.116;2023-07-08T04:48:21;6.03;;;5.13;;
33327;SDS011;19692;52.998;9.116;2023-07-08T04:50:50;6.00;;;4.97;;
33327;SDS011;19692;52.998;9.116;2023-07-08T04:53:17;6.37;;;5.50;;
33327;SDS011;19692;52.998;9.116;2023-07-08T04:55:53;6.40;;;5.57;;
33327;SDS011;19692;52.998;9.116;2023-07-08T04:58:21;6.70;;;5.10;;
33327;SDS011;19692;52.998;9.116;2023-07-08T05:00:47;5.70;;;5.20;;
33327;SDS011;19692;52.998;9.116;2023-07-08T05:03:13;8.60;;;5.37;;
33327;SDS011;19692;52.998;9.116;2023-07-08T05:05:39;5.63;;;4.90;;
33327;SDS011;19692;52.998;9.116;2023-07-08T05:08:05;6.57;;;5.40;;
33327;SDS011;19692;52.998;9.116;2023-07-08T05:10:31;6.20;;;5.20;;
33327;SDS011;19692;52.998;9.116;2023-07-08T05:12:57;6.23;;;4.80;;
33327;SDS011;19692;52.998;9.116;2023-07-08T05:15:24;4.97;;;4.47;;
33327;SDS011;19692;52.998;9.116;2023-07-08T05:17:50;6.27;;;5.00;;
33327;SDS011;19692;52.998;9.116;2023-07-08T05:20:17;6.90;;;5.10;;
33327;SDS011;19692;52.998;9.116;2023-07-08T05:22:43;8.87;;;5.27;;
33327;SDS011;19692;52.998;9.116;2023-07-08T05:25:10;7.30;;;4.80;;
33327;SDS011;19692;52.998;9.116;2023-07-08T05:27:37;7.27;;;4.77;;
33327;SDS011;19692;52.998;9.116;2023-07-08T05:30:04;5.00;;;4.40;;
33327;SDS011;19692;52.998;9.116;2023-07-08T05:32:31;7.30;;;5.07;;
33327;SDS011;19692;52.998;9.116;2023-07-08T05:34:57;5.77;;;4.80;;
33327;SDS011;19692;52.998;9.116;2023-07-08T05:37:23;5.10;;;4.60;;
33327;SDS011;19692;52.998;9.116;2023-07-08T05:39:53;6.47;;;4.63;;
33327;SDS011;19692;52.998;9.116;2023-07-08T05:42:20;5.50;;;5.00;;
33327;SDS011;19692;52.998;9.116;2023-07-08T05:44:47;6.97;;;5.03;;
33327;SDS011;19692;52.998;9.116;2023-07-08T05:47:13;5.17;;;4.67;;
33327;SDS011;19692;52.998;9.116;2023-07-08T05:49:39;6.40;;;5.23;;
33327;SDS011;19692;52.998;9.116;2023-07-08T05:52:06;6.10;;;5.20;;
33327;SDS011;19692;52.998;9.116;2023-07-08T05:54:36;4.90;;;4.40;;
33327;SDS011;19692;52.998;9.116;2023-07-08T05:57:06;5.00;;;4.60;;
33327;SDS011;19692;52.998;9.116;2023-07-08T05:59:34;5.73;;;4.60;;
33327;SDS011;19692;52.998;9.116;2023-07-08T06:02:02;5.57;;;4.60;;
33327;SDS011;19692;52.998;9.116;2023-07-08T06:04:28;5.07;;;4.57;;
33327;SDS011;19692;52.998;9.116;2023-07-08T06:06:56;5.60;;;4.73;;
33327;SDS011;19692;52.998;9.116;2023-07-08T06:09:22;5.53;;;4.50;;
33327;SDS011;19692;52.998;9.116;2023-07-08T06:11:48;5.60;;;5.00;;
33327;SDS011;19692;52.998;9.116;2023-07-08T06:14:13;5.47;;;4.87;;
33327;SDS011;19692;52.998;9.116;2023-07-08T06:16:39;5.23;;;4.73;;
33327;SDS011;19692;52.998;9.116;2023-07-08T06:19:05;6.63;;;4.73;;
33327;SDS011;19692;52.998;9.116;2023-07-08T06:21:31;4.80;;;4.40;;
33327;SDS011;19692;52.998;9.116;2023-07-08T06:23:57;5.67;;;4.40;;
33327;SDS011;19692;52.998;9.116;2023-07-08T06:26:23;5.03;;;4.40;;
33327;SDS011;19692;52.998;9.116;2023-07-08T06:28:49;6.60;;;4.73;;
33327;SDS011;19692;52.998;9.116;2023-07-08T06:31:15;5.70;;;5.20;;
33327;SDS011;19692;52.998;9.116;2023-07-08T06:33:41;11.10;;;4.60;;
33327;SDS011;19692;52.998;9.116;2023-07-08T06:36:07;6.90;;;4.20;;
33327;SDS011;19692;52.998;9.116;2023-07-08T06:38:35;5.10;;;4.57;;
33327;SDS011;19692;52.998;9.116;2023-07-08T06:41:01;5.93;;;4.70;;
33327;SDS011;19692;52.998;9.116;2023-07-08T06:43:27;5.57;;;4.30;;
33327;SDS011;19692;52.998;9.116;2023-07-08T06:45:53;4.80;;;4.40;;
33327;SDS011;19692;52.998;9.116;2023-07-08T06:48:18;6.70;;;4.53;;
33327;SDS011;19692;52.998;9.116;2023-07-08T06:50:47;4.60;;;4.20;;
33327;SDS011;19692;52.998;9.116;2023-07-08T06:53:14;4.80;;;4.30;;
33327;SDS011;19692;52.998;9.116;2023-07-08T06:55:59;5.47;;;4.50;;
33327;SDS011;19692;52.998;9.116;2023-07-08T06:58:25;5.43;;;4.90;;
33327;SDS011;19692;52.998;9.116;2023-07-08T07:00:52;5.47;;;4.93;;
33327;SDS011;19692;52.998;9.116;2023-07-08T07:03:26;8.40;;;4.53;;
33327;SDS011;19692;52.998;9.116;2023-07-08T07:05:55;5.63;;;4.40;;
33327;SDS011;19692;52.998;9.116;2023-07-08T07:08:21;5.00;;;4.60;;
33327;SDS011;19692;52.998;9.116;2023-07-08T07:10:47;5.67;;;4.53;;
33327;SDS011;19692;52.998;9.116;2023-07-08T07:13:13;4.83;;;4.40;;
33327;SDS011;19692;52.998;9.116;2023-07-08T07:15:39;5.37;;;4.63;;
33327;SDS011;19692;52.998;9.116;2023-07-08T07:21:47;5.23;;;4.77;;
33327;SDS011;19692;52.998;9.116;2023-07-08T07:24:13;5.07;;;4.33;;
33327;SDS011;19692;52.998;9.116;2023-07-08T07:26:39;4.87;;;4.47;;
33327;SDS011;19692;52.998;9.116;2023-07-08T07:29:05;8.33;;;4.50;;
33327;SDS011;19692;52.998;9.116;2023-07-08T07:31:31;7.43;;;5.07;;
33327;SDS011;19692;52.998;9.116;2023-07-08T07:34:02;5.97;;;4.47;;
33327;SDS011;19692;52.998;9.116;2023-07-08T07:36:37;4.83;;;4.40;;
33327;SDS011;19692;52.998;9.116;2023-07-08T07:39:09;4.80;;;4.40;;
33327;SDS011;19692;52.998;9.116;2023-07-08T07:41:34;5.33;;;4.83;;
33327;SDS011;19692;52.998;9.116;2023-07-08T07:44:00;6.30;;;4.67;;
33327;SDS011;19692;52.998;9.116;2023-07-08T07:46:26;5.03;;;4.53;;
33327;SDS011;19692;52.998;9.116;2023-07-08T07:48:52;5.13;;;4.57;;
33327;SDS011;19692;52.998;9.116;2023-07-08T07:51:18;4.93;;;4.53;;
33327;SDS011;19692;52.998;9.116;2023-07-08T07:53:44;4.90;;;4.40;;
33327;SDS011;19692;52.998;9.116;2023-07-08T07:56:12;4.40;;;4.07;;
33327;SDS011;19692;52.998;9.116;2023-07-08T07:58:38;5.33;;;4.60;;
33327;SDS011;19692;52.998;9.116;2023-07-08T08:01:04;7.33;;;5.70;;
33327;SDS011;19692;52.998;9.116;2023-07-08T08:03:31;6.37;;;4.63;;
33327;SDS011;19692;52.998;9.116;2023-07-08T08:06:02;5.03;;;4.53;;
33327;SDS011;19692;52.998;9.116;2023-07-08T08:08:30;4.87;;;4.37;;
33327;SDS011;19692;52.998;9.116;2023-07-08T08:11:01;4.93;;;4.30;;
33327;SDS011;19692;52.998;9.116;2023-07-08T08:13:41;6.67;;;4.70;;
33327;SDS011;19692;52.998;9.116;2023-07-08T08:16:13;5.23;;;4.73;;
33327;SDS011;19692;52.998;9.116;2023-07-08T08:22:17;4.60;;;4.20;;
33327;SDS011;19692;52.998;9.116;2023-07-08T08:24:43;4.87;;;4.37;;
33327;SDS011;19692;52.998;9.116;2023-07-08T08:27:09;5.43;;;4.10;;
33327;SDS011;19692;52.998;9.116;2023-07-08T08:29:58;5.60;;;4.53;;
33327;SDS011;19692;52.998;9.116;2023-07-08T08:32:50;4.80;;;4.27;;
33327;SDS011;19692;52.998;9.116;2023-07-08T08:36:04;4.63;;;4.20;;
33327;SDS011;19692;52.998;9.116;2023-07-08T08:39:28;4.30;;;3.90;;
33327;SDS011;19692;52.998;9.116;2023-07-08T08:42:44;8.00;;;4.27;;
33327;SDS011;19692;52.998;9.116;2023-07-08T08:45:42;5.20;;;4.70;;
33327;SDS011;19692;52.998;9.116;2023-07-08T08:48:31;4.97;;;4.27;;
33327;SDS011;19692;52.998;9.116;2023-07-08T08:51:20;5.00;;;3.93;;
33327;SDS011;19692;52.998;9.116;2023-07-08T08:53:48;4.93;;;4.00;;
33327;SDS011;19692;52.998;9.116;2023-07-08T09:00:53;4.57;;;4.17;;
33327;SDS011;19692;52.998;9.116;2023-07-08T09:03:52;5.50;;;4.27;;
33327;SDS011;19692;52.998;9.116;2023-07-08T09:06:42;5.83;;;4.10;;
33327;SDS011;19692;52.998;9.116;2023-07-08T09:12:03;4.60;;;4.20;;
33327;SDS011;19692;52.998;9.116;2023-07-08T09:14:34;5.67;;;4.20;;
33327;SDS011;19692;52.998;9.116;2023-07-08T09:22:53;4.50;;;4.10;;
33327;SDS011;19692;52.998;9.116;2023-07-08T09:25:37;6.27;;;4.20;;
33327;SDS011;19692;52.998;9.116;2023-07-08T09:28:12;4.57;;;4.13;;
33327;SDS011;19692;52.998;9.116;2023-07-08T09:30:39;5.73;;;4.53;;
33327;SDS011;19692;52.998;9.116;2023-07-08T09:33:06;5.87;;;4.33;;
33327;SDS011;19692;52.998;9.116;2023-07-08T09:35:43;6.83;;;4.33;;
33327;SDS011;19692;52.998;9.116;2023-07-08T09:38:16;6.93;;;4.40;;
33327;SDS011;19692;52.998;9.116;2023-07-08T09:40:50;4.63;;;4.27;;
33327;SDS011;19692;52.998;9.116;2023-07-08T09:43:25;7.10;;;4.40;;
33327;SDS011;19692;52.998;9.116;2023-07-08T09:45:51;6.13;;;4.30;;
33327;SDS011;19692;52.998;9.116;2023-07-08T09:48:33;5.03;;;4.30;;
33327;SDS011;19692;52.998;9.116;2023-07-08T09:51:02;4.77;;;4.17;;
33327;SDS011;19692;52.998;9.116;2023-07-08T09:53:29;5.20;;;4.43;;
33327;SDS011;19692;52.998;9.116;2023-07-08T09:55:58;4.70;;;4.30;;
33327;SDS011;19692;52.998;9.116;2023-07-08T09:58:27;5.20;;;4.70;;
33327;SDS011;19692;52.998;9.116;2023-07-08T10:00:59;4.77;;;4.33;;
33327;SDS011;19692;52.998;9.116;2023-07-08T10:03:35;6.03;;;4.37;;
33327;SDS011;19692;52.998;9.116;2023-07-08T10:06:03;5.47;;;4.80;;
33327;SDS011;19692;52.998;9.116;2023-07-08T10:08:50;5.10;;;4.50;;
33327;SDS011;19692;52.998;9.116;2023-07-08T10:11:23;4.33;;;4.03;;
33327;SDS011;19692;52.998;9.116;2023-07-08T10:14:24;4.67;;;4.10;;
33327;SDS011;19692;52.998;9.116;2023-07-08T10:17:03;6.30;;;4.40;;
33327;SDS011;19692;52.998;9.116;2023-07-08T10:19:29;5.57;;;4.70;;
33327;SDS011;19692;52.998;9.116;2023-07-08T10:30:25;6.67;;;4.33;;
33327;SDS011;19692;52.998;9.116;2023-07-08T10:38:54;4.77;;;4.37;;
33327;SDS011;19692;52.998;9.116;2023-07-08T10:47:32;4.87;;;4.47;;
33327;SDS011;19692;52.998;9.116;2023-07-08T10:56:40;5.07;;;4.60;;
33327;SDS011;19692;52.998;9.116;2023-07-08T11:02:02;5.27;;;4.77;;
33327;SDS011;19692;52.998;9.116;2023-07-08T11:08:01;5.33;;;4.80;;
33327;SDS011;19692;52.998;9.116;2023-07-08T11:10:39;5.70;;;4.60;;
33327;SDS011;19692;52.998;9.116;2023-07-08T11:13:29;5.10;;;4.40;;
33327;SDS011;19692;52.998;9.116;2023-07-08T11:18:38;5.50;;;5.00;;
33327;SDS011;19692;52.998;9.116;2023-07-08T11:26:45;5.20;;;4.70;;
33327;SDS011;19692;52.998;9.116;2023-07-08T11:29:23;5.87;;;4.60;;
33327;SDS011;19692;52.998;9.116;2023-07-08T11:32:02;5.37;;;4.87;;
33327;SDS011;19692;52.998;9.116;2023-07-08T11:34:30;5.30;;;4.80;;
33327;SDS011;19692;52.998;9.116;2023-07-08T11:36:58;4.73;;;4.17;;
33327;SDS011;19692;52.998;9.116;2023-07-08T11:39:31;4.90;;;4.40;;
33327;SDS011;19692;52.998;9.116;2023-07-08T11:44:48;8.30;;;4.80;;
33327;SDS011;19692;52.998;9.116;2023-07-08T11:47:33;6.23;;;4.73;;
33327;SDS011;19692;52.998;9.116;2023-07-08T11:50:57;7.20;;;5.30;;
33327;SDS011;19692;52.998;9.116;2023-07-08T11:53:03;4.83;;;4.43;;
33327;SDS011;19692;52.998;9.116;2023-07-08T11:55:44;5.67;;;4.63;;
33327;SDS011;19692;52.998;9.116;2023-07-08T11:58:22;5.30;;;4.80;;
33327;SDS011;19692;52.998;9.116;2023-07-08T12:00:58;5.60;;;5.00;;
33327;SDS011;19692;52.998;9.116;2023-07-08T12:03:36;5.23;;;4.70;;
33327;SDS011;19692;52.998;9.116;2023-07-08T12:08:59;5.60;;;5.20;;
33327;SDS011;19692;52.998;9.116;2023-07-08T12:11:47;5.60;;;4.90;;
33327;SDS011;19692;52.998;9.116;2023-07-08T12:14:29;9.57;;;4.40;;
33327;SDS011;19692;52.998;9.116;2023-07-08T12:17:04;6.53;;;5.33;;
33327;SDS011;19692;52.998;9.116;2023-07-08T12:19:40;7.30;;;5.23;;
33327;SDS011;19692;52.998;9.116;2023-07-08T12:22:09;5.47;;;4.97;;
33327;SDS011;19692;52.998;9.116;2023-07-08T12:24:39;5.93;;;5.43;;
33327;SDS011;19692;52.998;9.116;2023-07-08T12:27:06;7.13;;;5.33;;
33327;SDS011;19692;52.998;9.116;2023-07-08T12:29:34;6.00;;;5.50;;
33327;SDS011;19692;52.998;9.116;2023-07-08T12:32:00;5.87;;;5.37;;
33327;SDS011;19692;52.998;9.116;2023-07-08T12:34:29;5.60;;;5.10;;
33327;SDS011;19692;52.998;9.116;2023-07-08T12:36:55;6.13;;;5.53;;
33327;SDS011;19692;52.998;9.116;2023-07-08T12:39:25;5.97;;;5.37;;
33327;SDS011;19692;52.998;9.116;2023-07-08T12:41:51;6.30;;;5.70;;
33327;SDS011;19692;52.998;9.116;2023-07-08T12:44:27;5.87;;;5.37;;
33327;SDS011;19692;52.998;9.116;2023-07-08T12:47:01;7.57;;;5.67;;
33327;SDS011;19692;52.998;9.116;2023-07-08T12:49:30;6.23;;;5.63;;
33327;SDS011;19692;52.998;9.116;2023-07-08T12:51:59;6.17;;;5.57;;
33327;SDS011;19692;52.998;9.116;2023-07-08T12:54:49;6.70;;;5.23;;
33327;SDS011;19692;52.998;9.116;2023-07-08T12:57:18;6.30;;;5.70;;
33327;SDS011;19692;52.998;9.116;2023-07-08T12:59:44;5.87;;;5.37;;
33327;SDS011;19692;52.998;9.116;2023-07-08T13:02:32;8.47;;;6.10;;
33327;SDS011;19692;52.998;9.116;2023-07-08T13:05:06;6.20;;;5.60;;
33327;SDS011;19692;52.998;9.116;2023-07-08T13:07:36;6.30;;;5.70;;
33327;SDS011;19692;52.998;9.116;2023-07-08T13:10:19;6.53;;;5.57;;
33327;SDS011;19692;52.998;9.116;2023-07-08T13:13:02;6.30;;;5.43;;
33327;SDS011;19692;52.998;9.116;2023-07-08T13:15:34;6.83;;;6.20;;
33327;SDS011;19692;52.998;9.116;2023-07-08T13:18:23;5.77;;;5.37;;
33327;SDS011;19692;52.998;9.116;2023-07-08T13:21:02;6.37;;;5.70;;
33327;SDS011;19692;52.998;9.116;2023-07-08T13:23:30;6.57;;;5.80;;
33327;SDS011;19692;52.998;9.116;2023-07-08T13:26:17;6.47;;;5.97;;
33327;SDS011;19692;52.998;9.116;2023-07-08T13:28:48;6.07;;;5.53;;
33327;SDS011;19692;52.998;9.116;2023-07-08T13:31:19;6.87;;;6.23;;
33327;SDS011;19692;52.998;9.116;2023-07-08T13:34:13;6.43;;;5.83;;
33327;SDS011;19692;52.998;9.116;2023-07-08T13:36:46;6.27;;;5.67;;
33327;SDS011;19692;52.998;9.116;2023-07-08T13:42:01;5.90;;;5.40;;
33327;SDS011;19692;52.998;9.116;2023-07-08T13:44:37;6.40;;;5.80;;
33327;SDS011;19692;52.998;9.116;2023-07-08T13:47:23;6.17;;;5.57;;
33327;SDS011;19692;52.998;9.116;2023-07-08T13:49:55;7.10;;;6.37;;
33327;SDS011;19692;52.998;9.116;2023-07-08T13:52:43;6.47;;;5.87;;
33327;SDS011;19692;52.998;9.116;2023-07-08T13:55:15;7.33;;;6.63;;
33327;SDS011;19692;52.998;9.116;2023-07-08T13:57:55;7.40;;;6.80;;
33327;SDS011;19692;52.998;9.116;2023-07-08T14:00:34;8.20;;;6.83;;
33327;SDS011;19692;52.998;9.116;2023-07-08T14:03:00;7.90;;;6.80;;
33327;SDS011;19692;52.998;9.116;2023-07-08T14:05:28;8.00;;;6.50;;
33327;SDS011;19692;52.998;9.116;2023-07-08T14:07:57;8.90;;;6.00;;
33327;SDS011;19692;52.998;9.116;2023-07-08T14:10:25;7.07;;;6.47;;
33327;SDS011;19692;52.998;9.116;2023-07-08T14:12:54;6.17;;;5.67;;
33327;SDS011;19692;52.998;9.116;2023-07-08T14:15:20;7.27;;;6.57;;
33327;SDS011;19692;52.998;9.116;2023-07-08T14:17:46;6.60;;;6.00;;
33327;SDS011;19692;52.998;9.116;2023-07-08T14:20:16;6.93;;;6.33;;
33327;SDS011;19692;52.998;9.116;2023-07-08T14:22:43;8.90;;;6.23;;
33327;SDS011;19692;52.998;9.116;2023-07-08T14:25:15;7.07;;;6.30;;
33327;SDS011;19692;52.998;9.116;2023-07-08T14:37:27;6.60;;;5.70;;
33327;SDS011;19692;52.998;9.116;2023-07-08T14:39:55;6.67;;;6.07;;
33327;SDS011;19692;52.998;9.116;2023-07-08T14:42:21;6.67;;;5.60;;
33327;SDS011;19692;52.998;9.116;2023-07-08T14:44:48;6.17;;;5.57;;
33327;SDS011;19692;52.998;9.116;2023-07-08T14:47:15;7.63;;;5.67;;
33327;SDS011;19692;52.998;9.116;2023-07-08T14:49:44;6.00;;;5.50;;
33327;SDS011;19692;52.998;9.116;2023-07-08T14:52:10;9.27;;;6.00;;
33327;SDS011;19692;52.998;9.116;2023-07-08T14:54:36;6.77;;;6.07;;
33327;SDS011;19692;52.998;9.116;2023-07-08T14:57:02;7.10;;;6.40;;
33327;SDS011;19692;52.998;9.116;2023-07-08T14:59:31;6.70;;;6.00;;
33327;SDS011;19692;52.998;9.116;2023-07-08T15:02:01;6.50;;;5.80;;
33327;SDS011;19692;52.998;9.116;2023-07-08T15:04:42;6.20;;;5.60;;
33327;SDS011;19692;52.998;9.116;2023-07-08T15:07:08;6.70;;;5.77;;
33327;SDS011;19692;52.998;9.116;2023-07-08T15:09:34;6.33;;;5.73;;
33327;SDS011;19692;52.998;9.116;2023-07-08T15:12:00;6.83;;;5.67;;
33327;SDS011;19692;52.998;9.116;2023-07-08T15:14:26;6.67;;;6.07;;
33327;SDS011;19692;52.998;9.116;2023-07-08T15:16:52;6.40;;;5.43;;
33327;SDS011;19692;52.998;9.116;2023-07-08T15:19:19;7.40;;;5.90;;
33327;SDS011;19692;52.998;9.116;2023-07-08T15:21:45;6.70;;;6.10;;
33327;SDS011;19692;52.998;9.116;2023-07-08T15:24:12;7.80;;;5.97;;
33327;SDS011;19692;52.998;9.116;2023-07-08T15:26:39;6.70;;;6.07;;
33327;SDS011;19692;52.998;9.116;2023-07-08T15:29:11;7.70;;;6.03;;
33327;SDS011;19692;52.998;9.116;2023-07-08T15:31:41;6.67;;;5.97;;
33327;SDS011;19692;52.998;9.116;2023-07-08T15:34:15;6.83;;;6.23;;
33327;SDS011;19692;52.998;9.116;2023-07-08T15:36:43;6.50;;;5.73;;
33327;SDS011;19692;52.998;9.116;2023-07-08T15:39:09;6.23;;;5.63;;
33327;SDS011;19692;52.998;9.116;2023-07-08T15:41:35;6.50;;;5.90;;
33327;SDS011;19692;52.998;9.116;2023-07-08T15:44:03;7.47;;;6.67;;
33327;SDS011;19692;52.998;9.116;2023-07-08T15:46:35;6.60;;;6.00;;
33327;SDS011;19692;52.998;9.116;2023-07-08T15:49:16;6.50;;;5.70;;
33327;SDS011;19692;52.998;9.116;2023-07-08T15:51:52;7.17;;;6.03;;
33327;SDS011;19692;52.998;9.116;2023-07-08T15:54:18;6.80;;;6.10;;
33327;SDS011;19692;52.998;9.116;2023-07-08T15:56:45;6.27;;;5.53;;
33327;SDS011;19692;52.998;9.116;2023-07-08T15:59:13;6.57;;;5.87;;
33327;SDS011;19692;52.998;9.116;2023-07-08T16:01:43;6.10;;;5.60;;
33327;SDS011;19692;52.998;9.116;2023-07-08T16:04:15;7.37;;;6.43;;
33327;SDS011;19692;52.998;9.116;2023-07-08T16:06:51;7.13;;;5.90;;
33327;SDS011;19692;52.998;9.116;2023-07-08T16:09:17;6.43;;;5.83;;
33327;SDS011;19692;52.998;9.116;2023-07-08T16:11:43;6.80;;;6.20;;
33327;SDS011;19692;52.998;9.116;2023-07-08T16:14:12;6.97;;;6.30;;
33327;SDS011;19692;52.998;9.116;2023-07-08T16:16:40;6.70;;;5.90;;
33327;SDS011;19692;52.998;9.116;2023-07-08T16:19:11;6.83;;;6.13;;
33327;SDS011;19692;52.998;9.116;2023-07-08T16:21:38;6.60;;;6.00;;
33327;SDS011;19692;52.998;9.116;2023-07-08T16:24:05;7.60;;;6.20;;
33327;SDS011;19692;52.998;9.116;2023-07-08T16:26:31;7.10;;;6.20;;
33327;SDS011;19692;52.998;9.116;2023-07-08T16:28:57;6.70;;;5.30;;